Time;durP1;ratioP1;P1;durP2;ratioP2;P2;SDS_P1;SDS_P2;PMS_P1;PMS_P2;Temp;Humidity;BMP_temperature;BMP_pressure;BME280_temperature;BME280_humidity;BME280_pressure;Samples;Min_cycle;Max_cycle;Signal;HPM_P1;HPM_P2
2023/09/12 00:00:16;;;;;;;75.00;10.77;;;24.00;2.40;;;;;;4984265;28;20415;-82
2023/09/12 00:02:42;;;;;;;73.50;10.50;;;24.00;1.00;;;;;;4983596;28;20194;-82
2023/09/12 00:05:08;;;;;;;79.10;12.10;;;24.00;1.40;;;;;;4966588;28;20180;-82
2023/09/12 00:07:34;;;;;;;75.53;13.07;;;24.00;1.00;;;;;;4984045;28;20168;-82
2023/09/12 00:10:00;;;;;;;87.13;12.87;;;23.90;3.30;;;;;;4965648;28;20462;-83
2023/09/12 00:12:25;;;;;;;72.83;11.63;;;23.90;2.10;;;;;;4983510;28;20900;-82
2023/09/12 00:14:51;;;;;;;73.60;10.27;;;23.80;2.60;;;;;;4983446;28;20168;-82
2023/09/12 00:17:17;;;;;;;75.27;12.87;;;23.70;5.70;;;;;;4983515;28;20163;-82
2023/09/12 00:19:43;;;;;;;79.17;14.43;;;23.70;3.00;;;;;;4984221;28;20167;-82
2023/09/12 00:22:09;;;;;;;77.13;19.67;;;23.50;10.90;;;;;;4983916;28;20184;-82
2023/09/12 00:24:35;;;;;;;75.70;23.07;;;23.30;22.40;;;;;;4983840;28;20511;-82
2023/09/12 00:27:00;;;;;;;78.73;24.60;;;23.20;24.20;;;;;;4984490;28;20550;-82
2023/09/12 00:29:26;;;;;;;80.47;22.17;;;23.20;26.60;;;;;;4983495;28;20227;-82
2023/09/12 00:31:51;;;;;;;76.17;22.37;;;23.20;24.60;;;;;;4982766;28;20180;-82
2023/09/12 00:34:20;;;;;;;77.40;20.40;;;23.30;25.30;;;;;;4982465;28;20242;-82
2023/09/12 00:36:46;;;;;;;81.57;23.07;;;23.40;18.60;;;;;;4982499;28;20168;-82
2023/09/12 00:39:12;;;;;;;80.30;20.23;;;23.40;18.50;;;;;;4981875;28;20422;-82
2023/09/12 00:41:37;;;;;;;76.63;20.03;;;23.40;19.10;;;;;;4981636;28;20188;-82
2023/09/12 00:44:03;;;;;;;75.40;20.97;;;23.40;16.50;;;;;;4981550;28;20541;-82
2023/09/12 00:46:29;;;;;;;81.20;23.40;;;23.50;14.70;;;;;;4982109;28;20541;-82
2023/09/12 00:48:59;;;;;;;75.90;18.20;;;23.50;17.60;;;;;;4964324;28;20231;-82
2023/09/12 00:51:26;;;;;;;75.50;18.07;;;23.50;13.30;;;;;;4981051;28;20443;-82
2023/09/12 00:53:53;;;;;;;79.73;24.50;;;23.50;15.50;;;;;;4982043;28;20404;-82
2023/09/12 00:56:19;;;;;;;78.50;22.07;;;23.50;18.30;;;;;;4982176;28;20426;-82
2023/09/12 00:58:45;;;;;;;82.07;27.37;;;23.40;21.30;;;;;;4962666;28;20450;-82
2023/09/12 01:01:11;;;;;;;78.77;22.30;;;23.40;21.10;;;;;;4980644;28;20210;-82
2023/09/12 01:03:37;;;;;;;80.97;22.70;;;23.40;23.80;;;;;;4981000;28;20403;-82
2023/09/12 01:06:05;;;;;;;79.60;22.90;;;23.40;22.80;;;;;;4980946;28;20418;-82
2023/09/12 01:08:31;;;;;;;80.47;22.13;;;23.40;25.80;;;;;;4963490;28;20847;-82
2023/09/12 01:10:58;;;;;;;79.80;25.67;;;23.40;23.90;;;;;;4963803;28;20500;-82
2023/09/12 01:13:23;;;;;;;87.90;25.33;;;23.30;26.30;;;;;;4980756;28;20239;-82
2023/09/12 01:15:49;;;;;;;80.57;24.17;;;23.40;25.80;;;;;;4980927;28;20439;-82
2023/09/12 01:18:15;;;;;;;79.97;24.37;;;23.40;25.00;;;;;;4981303;28;20164;-82
2023/09/12 01:21:06;;;;;;;80.20;24.33;;;23.40;27.90;;;;;;4981172;28;20219;-82
2023/09/12 01:23:45;;;;;;;80.60;20.60;;;23.40;25.40;;;;;;4963372;28;20286;-82
2023/09/12 01:26:45;;;;;;;78.20;20.93;;;23.40;25.10;;;;;;4964255;28;20483;-82
2023/09/12 01:29:13;;;;;;;79.50;21.00;;;23.30;24.70;;;;;;4981074;28;20396;-82
2023/09/12 01:31:39;;;;;;;78.87;24.00;;;23.40;26.10;;;;;;4963901;28;20462;-82
2023/09/12 01:34:12;;;;;;;84.60;23.60;;;23.40;28.30;;;;;;4963348;28;20557;-82
2023/09/12 01:36:38;;;;;;;84.77;25.23;;;23.30;27.80;;;;;;4981577;28;20411;-82
2023/09/12 01:39:04;;;;;;;81.07;24.60;;;23.30;29.60;;;;;;4963767;28;20474;-82
2023/09/12 01:41:34;;;;;;;85.33;25.60;;;23.30;30.10;;;;;;4981006;28;20431;-82
2023/09/12 01:44:02;;;;;;;85.00;25.80;;;23.20;34.10;;;;;;4981248;28;20403;-82
2023/09/12 01:46:31;;;;;;;84.87;24.67;;;23.10;39.90;;;;;;4981336;28;20454;-82
2023/09/12 01:48:58;;;;;;;86.70;22.73;;;23.10;43.80;;;;;;4980583;28;20554;-82
2023/09/12 01:51:25;;;;;;;85.73;22.53;;;23.00;45.60;;;;;;4985445;28;20459;-82
2023/09/12 01:53:52;;;;;;;85.93;25.27;;;23.00;48.60;;;;;;4988815;28;20484;-82
2023/09/12 01:56:18;;;;;;;86.00;26.87;;;22.90;50.90;;;;;;4982286;28;20431;-82
2023/09/12 01:58:45;;;;;;;83.60;23.97;;;22.90;49.80;;;;;;4981805;28;20619;-82
2023/09/12 02:01:11;;;;;;;85.97;25.20;;;22.90;51.60;;;;;;4964586;28;20462;-82
2023/09/12 02:03:37;;;;;;;85.90;23.57;;;22.90;51.30;;;;;;4964491;28;20920;-82
2023/09/12 02:06:08;;;;;;;81.43;21.97;;;22.90;54.60;;;;;;4982006;28;20395;-82
2023/09/12 02:08:34;;;;;;;83.77;22.47;;;22.90;56.60;;;;;;4964071;28;20179;-82
2023/09/12 02:11:00;;;;;;;84.03;24.07;;;22.80;57.70;;;;;;4981279;28;20439;-82
2023/09/12 02:13:25;;;;;;;83.37;23.67;;;22.80;64.20;;;;;;4981249;28;20156;-82
2023/09/12 02:15:59;;;;;;;86.37;23.83;;;22.80;64.80;;;;;;4963267;28;20180;-82
2023/09/12 02:18:24;;;;;;;90.30;27.30;;;22.80;65.30;;;;;;4981733;28;20239;-82
2023/09/12 02:20:50;;;;;;;83.43;24.97;;;22.90;58.10;;;;;;4963983;28;20505;-82
2023/09/12 02:23:16;;;;;;;90.23;21.57;;;22.80;60.50;;;;;;4981361;28;20167;-82
2023/09/12 02:25:41;;;;;;;80.87;22.50;;;22.80;61.30;;;;;;4981200;28;20629;-82
2023/09/12 02:28:07;;;;;;;86.67;24.67;;;22.80;60.60;;;;;;4964007;28;20723;-82
2023/09/12 02:30:33;;;;;;;85.67;23.73;;;22.80;57.50;;;;;;4981167;28;20200;-82
2023/09/12 02:32:58;;;;;;;82.77;20.77;;;22.80;61.40;;;;;;4981881;28;20310;-82
2023/09/12 02:35:24;;;;;;;83.20;23.53;;;22.80;61.80;;;;;;4981711;28;20171;-82
2023/09/12 02:37:50;;;;;;;84.00;23.80;;;22.80;63.10;;;;;;4964397;28;20172;-82
2023/09/12 02:40:15;;;;;;;87.57;26.33;;;22.70;68.70;;;;;;4980591;28;20695;-82
2023/09/12 02:42:41;;;;;;;86.00;25.90;;;22.70;66.40;;;;;;4980920;28;20184;-82
2023/09/12 02:45:07;;;;;;;87.20;24.83;;;22.60;73.30;;;;;;4980869;28;20167;-82
2023/09/12 02:47:33;;;;;;;86.30;24.77;;;22.50;76.90;;;;;;4980910;28;20577;-82
2023/09/12 02:49:58;;;;;;;86.57;22.90;;;22.50;82.00;;;;;;4981223;28;20407;-82
2023/09/12 02:52:24;;;;;;;85.47;25.57;;;22.40;83.90;;;;;;4964307;28;20231;-82
2023/09/12 02:54:50;;;;;;;84.00;23.00;;;22.50;84.30;;;;;;4980774;28;20164;-83
2023/09/12 02:57:15;;;;;;;85.13;22.17;;;22.50;80.20;;;;;;4980937;28;20597;-82
2023/09/12 02:59:41;;;;;;;88.07;23.40;;;22.50;81.80;;;;;;4981817;28;20593;-82
2023/09/12 03:02:06;;;;;;;83.30;25.07;;;22.50;80.00;;;;;;4981412;28;20714;-82
2023/09/12 03:04:35;;;;;;;81.90;23.43;;;22.50;83.00;;;;;;4980736;28;20637;-82
2023/09/12 03:07:00;;;;;;;84.03;24.13;;;22.50;78.80;;;;;;4963813;28;20191;-82
2023/09/12 03:09:26;;;;;;;84.90;26.90;;;22.50;80.10;;;;;;4980517;28;20407;-82
2023/09/12 03:11:52;;;;;;;86.17;24.40;;;22.50;75.90;;;;;;4980315;28;20294;-82
2023/09/12 03:14:18;;;;;;;83.83;22.23;;;22.50;77.70;;;;;;4962781;28;20649;-82
2023/09/12 03:16:43;;;;;;;82.10;22.63;;;22.50;77.60;;;;;;4962144;28;20167;-82
2023/09/12 03:19:09;;;;;;;86.30;25.10;;;22.50;80.00;;;;;;4961789;28;20283;-82
2023/09/12 03:21:35;;;;;;;83.97;25.70;;;22.50;79.90;;;;;;4979212;28;20195;-82
2023/09/12 03:24:00;;;;;;;85.30;23.00;;;22.40;80.50;;;;;;4979578;28;20164;-82
2023/09/12 03:26:26;;;;;;;84.67;22.60;;;22.40;85.10;;;;;;4979533;28;20180;-82
2023/09/12 03:28:52;;;;;;;84.67;25.00;;;22.50;82.90;;;;;;4982528;28;20175;-82
2023/09/12 03:31:18;;;;;;;81.47;21.67;;;22.50;82.20;;;;;;4966448;28;20435;-82
2023/09/12 03:33:49;;;;;;;83.13;24.23;;;22.40;80.40;;;;;;4966327;28;20645;-82
2023/09/12 03:36:16;;;;;;;83.77;26.90;;;22.50;84.70;;;;;;4983634;28;20391;-82
2023/09/12 03:38:42;;;;;;;85.87;27.43;;;22.40;83.50;;;;;;4965213;28;20407;-82
2023/09/12 03:41:07;;;;;;;84.10;22.83;;;22.50;83.10;;;;;;4982989;28;20438;-82
2023/09/12 03:43:33;;;;;;;83.97;26.70;;;22.40;83.80;;;;;;4983189;28;20219;-82
2023/09/12 03:45:59;;;;;;;84.70;24.33;;;22.40;83.80;;;;;;4983773;28;20168;-82
2023/09/12 03:48:25;;;;;;;82.23;23.60;;;22.50;87.10;;;;;;4965955;28;20506;-82
2023/09/12 03:50:51;;;;;;;82.97;22.23;;;22.40;87.00;;;;;;4983018;28;20180;-82
2023/09/12 03:53:17;;;;;;;80.70;21.30;;;22.40;87.30;;;;;;4983760;28;20171;-82
2023/09/12 03:55:45;;;;;;;84.80;23.33;;;22.40;89.00;;;;;;4983402;28;20406;-82
2023/09/12 03:58:13;;;;;;;81.87;23.50;;;22.40;87.10;;;;;;4984023;28;20403;-82
2023/09/12 04:00:39;;;;;;;79.50;21.40;;;22.40;85.90;;;;;;4982764;28;20453;-82
2023/09/12 04:03:04;;;;;;;84.43;22.10;;;22.50;84.80;;;;;;4983546;28;20411;-82
2023/09/12 04:05:30;;;;;;;85.50;23.67;;;22.40;86.40;;;;;;4983160;28;20164;-82
2023/09/12 04:07:56;;;;;;;81.20;22.80;;;22.40;87.10;;;;;;4982594;28;20680;-82
2023/09/12 04:10:21;;;;;;;84.13;22.37;;;22.40;86.10;;;;;;4982439;28;20176;-82
2023/09/12 04:12:50;;;;;;;81.60;22.30;;;22.40;87.20;;;;;;4964565;28;20211;-82
2023/09/12 04:15:16;;;;;;;83.77;23.77;;;22.40;86.10;;;;;;4982846;28;20171;-82
2023/09/12 04:17:41;;;;;;;81.13;23.80;;;22.50;84.50;;;;;;4982697;28;20415;-82
2023/09/12 04:20:07;;;;;;;80.10;24.47;;;22.50;84.90;;;;;;4982703;28;20191;-82
2023/09/12 04:22:33;;;;;;;82.03;22.77;;;22.50;83.90;;;;;;4965016;28;20264;-82
2023/09/12 04:24:59;;;;;;;78.93;22.70;;;22.50;80.70;;;;;;4982478;28;20285;-82
2023/09/12 04:27:25;;;;;;;80.07;23.00;;;22.40;83.90;;;;;;4965964;28;20403;-82
2023/09/12 04:30:15;;;;;;;80.10;22.67;;;22.50;81.80;;;;;;4981790;28;20172;-82
2023/09/12 04:32:40;;;;;;;79.87;21.17;;;22.40;83.60;;;;;;4982499;28;20184;-82
2023/09/12 04:35:06;;;;;;;78.70;22.13;;;22.40;81.00;;;;;;4964987;28;20411;-82
2023/09/12 04:37:32;;;;;;;78.77;21.10;;;22.40;83.30;;;;;;4982910;28;20172;-82
2023/09/12 04:39:58;;;;;;;78.50;20.83;;;22.40;85.10;;;;;;4963704;28;20458;-82
2023/09/12 04:42:23;;;;;;;79.70;22.37;;;22.30;90.20;;;;;;4982370;28;20282;-82
2023/09/12 04:44:49;;;;;;;81.03;19.30;;;22.30;85.00;;;;;;4982555;28;20164;-82
2023/09/12 04:47:15;;;;;;;78.27;22.50;;;22.30;83.20;;;;;;4982312;28;20680;-82
2023/09/12 04:49:41;;;;;;;76.57;18.90;;;22.30;85.90;;;;;;4982240;28;20164;-81
2023/09/12 04:52:10;;;;;;;77.63;20.90;;;22.30;86.60;;;;;;4964811;28;20622;-82
2023/09/12 04:54:36;;;;;;;79.60;20.97;;;22.30;84.80;;;;;;4981890;28;20414;-81
2023/09/12 04:57:14;;;;;;;74.20;18.23;;;22.30;87.80;;;;;;4964940;28;20421;-82
2023/09/12 04:59:39;;;;;;;77.60;21.93;;;22.40;87.60;;;;;;4982391;28;20438;-82
2023/09/12 05:02:05;;;;;;;78.13;19.00;;;22.40;89.80;;;;;;4982173;28;20825;-82
2023/09/12 05:04:31;;;;;;;77.80;19.30;;;22.40;89.60;;;;;;4981817;28;20731;-82
2023/09/12 05:06:57;;;;;;;77.77;20.13;;;22.30;91.00;;;;;;4982414;28;20255;-82
2023/09/12 05:09:23;;;;;;;79.67;20.00;;;22.30;92.40;;;;;;4982316;28;20502;-82
2023/09/12 05:11:51;;;;;;;77.70;21.20;;;22.30;92.00;;;;;;4964922;28;20211;-82
2023/09/12 05:14:17;;;;;;;79.40;20.20;;;22.30;93.90;;;;;;4964459;28;20242;-82
2023/09/12 05:16:42;;;;;;;79.37;19.73;;;22.30;93.20;;;;;;4981991;28;20403;-82
2023/09/12 05:19:08;;;;;;;78.97;19.83;;;22.30;91.80;;;;;;4981223;28;20215;-82
2023/09/12 05:21:34;;;;;;;76.67;21.50;;;22.30;92.90;;;;;;4981371;28;20274;-82
2023/09/12 05:24:00;;;;;;;76.17;19.20;;;22.20;95.60;;;;;;4982521;28;20200;-82
2023/09/12 05:26:26;;;;;;;78.87;20.30;;;22.30;93.50;;;;;;4981839;28;20445;-82
2023/09/12 05:28:52;;;;;;;74.90;18.53;;;22.30;92.60;;;;;;4982078;28;20179;-82
2023/09/12 05:31:18;;;;;;;79.17;19.63;;;22.30;91.40;;;;;;4980125;28;20292;-82
2023/09/12 05:33:43;;;;;;;79.00;21.20;;;22.30;91.50;;;;;;4980583;28;20423;-80
2023/09/12 05:36:09;;;;;;;80.00;19.40;;;22.30;90.50;;;;;;4978934;28;20156;-80
2023/09/12 05:38:35;;;;;;;76.63;17.83;;;22.30;91.20;;;;;;4978258;28;20179;-80
2023/09/12 05:41:01;;;;;;;79.13;22.77;;;22.30;89.40;;;;;;4978769;28;20207;-80
2023/09/12 05:43:27;;;;;;;76.20;22.27;;;22.40;86.80;;;;;;4961338;28;20180;-80
2023/09/12 05:45:53;;;;;;;75.10;19.60;;;22.40;84.00;;;;;;4979456;28;20408;-80
2023/09/12 05:48:19;;;;;;;74.90;20.87;;;22.40;81.50;;;;;;4978324;28;20187;-80
2023/09/12 05:50:44;;;;;;;77.67;19.73;;;22.40;78.40;;;;;;4977895;28;20172;-80
2023/09/12 05:53:10;;;;;;;78.67;19.10;;;22.40;77.20;;;;;;4979188;28;20939;-80
2023/09/12 05:55:36;;;;;;;78.07;22.10;;;22.40;74.40;;;;;;4979276;28;20171;-80
2023/09/12 05:58:05;;;;;;;80.27;22.73;;;22.40;77.50;;;;;;4961643;28;20174;-80
2023/09/12 06:00:31;;;;;;;77.07;19.10;;;22.50;75.10;;;;;;4979322;28;20206;-80
2023/09/12 06:02:57;;;;;;;77.67;22.00;;;22.50;71.60;;;;;;4961711;28;20415;-80
2023/09/12 06:05:23;;;;;;;77.80;21.80;;;22.60;72.90;;;;;;4961528;28;20558;-80
2023/09/12 06:07:49;;;;;;;78.27;21.37;;;22.70;67.70;;;;;;4978888;28;20414;-80
2023/09/12 06:10:14;;;;;;;79.67;22.23;;;22.70;63.90;;;;;;4978479;28;20518;-80
2023/09/12 06:12:40;;;;;;;77.67;24.67;;;22.80;59.40;;;;;;4978250;28;20227;-80
2023/09/12 06:15:06;;;;;;;76.07;21.83;;;22.90;58.70;;;;;;4978786;28;20186;-80
2023/09/12 06:17:32;;;;;;;75.07;21.80;;;23.00;49.90;;;;;;4977960;28;20518;-80
2023/09/12 06:19:58;;;;;;;80.30;24.50;;;23.00;51.30;;;;;;4978067;28;20470;-80
2023/09/12 06:22:23;;;;;;;80.23;26.13;;;23.10;38.60;;;;;;4961212;28;20195;-80
2023/09/12 06:24:52;;;;;;;79.83;23.43;;;23.00;39.00;;;;;;4977775;28;20411;-81
2023/09/12 06:27:21;;;;;;;77.03;25.97;;;23.10;36.70;;;;;;4977767;28;20176;-80
2023/09/12 06:29:48;;;;;;;80.33;22.80;;;23.00;33.50;;;;;;4977310;28;20498;-80
2023/09/12 06:32:15;;;;;;;79.80;20.50;;;22.90;43.70;;;;;;4977761;28;20435;-82
2023/09/12 06:34:41;;;;;;;83.17;27.03;;;22.80;47.60;;;;;;4959815;28;20420;-82
2023/09/12 06:37:14;;;;;;;84.70;21.00;;;22.70;58.50;;;;;;4959248;28;20426;-82
2023/09/12 06:39:39;;;;;;;81.27;21.20;;;22.70;70.70;;;;;;4960895;28;20899;-81
2023/09/12 06:42:06;;;;;;;90.97;29.57;;;22.70;78.90;;;;;;4977119;28;20478;-82
2023/09/12 06:44:34;;;;;;;90.87;25.90;;;22.70;90.40;;;;;;4959648;28;20676;-82
2023/09/12 06:47:00;;;;;;;93.80;29.60;;;22.70;86.10;;;;;;4978250;28;20407;-82
2023/09/12 06:49:25;;;;;;;94.07;26.77;;;22.70;87.30;;;;;;4977753;28;20418;-82
2023/09/12 06:51:51;;;;;;;88.60;25.97;;;22.80;86.50;;;;;;4976545;28;20196;-82
2023/09/12 06:54:19;;;;;;;103.17;30.03;;;22.80;84.80;;;;;;4978900;28;20179;-82
2023/09/12 06:56:45;;;;;;;92.90;26.67;;;22.70;85.70;;;;;;4978504;28;20191;-82
2023/09/12 06:59:11;;;;;;;91.47;29.20;;;22.80;85.50;;;;;;4978086;28;20447;-82
2023/09/12 07:01:37;;;;;;;88.50;26.27;;;22.80;82.00;;;;;;4978465;28;20219;-82
2023/09/12 07:04:04;;;;;;;88.90;26.53;;;22.90;73.50;;;;;;4979028;28;20174;-82
2023/09/12 07:06:29;;;;;;;104.37;28.33;;;23.00;62.20;;;;;;4979370;28;20164;-82
2023/09/12 07:08:55;;;;;;;94.47;28.20;;;22.90;58.90;;;;;;4978768;28;20744;-83
2023/09/12 07:11:20;;;;;;;91.50;24.83;;;22.90;63.80;;;;;;4978142;28;20214;-82
2023/09/12 07:13:46;;;;;;;88.53;25.93;;;22.80;68.70;;;;;;4977908;28;20164;-82
2023/09/12 07:16:12;;;;;;;86.90;26.60;;;22.80;69.40;;;;;;4977499;28;20251;-82
2023/09/12 07:18:38;;;;;;;85.30;24.50;;;22.80;63.50;;;;;;4980643;28;20172;-82
2023/09/12 07:21:06;;;;;;;84.40;26.57;;;22.80;72.10;;;;;;4982762;28;20463;-82
2023/09/12 07:23:32;;;;;;;82.30;24.03;;;22.80;67.70;;;;;;4964042;28;20419;-82
2023/09/12 07:25:59;;;;;;;82.77;27.63;;;22.90;64.60;;;;;;4981330;28;20415;-82
2023/09/12 07:28:27;;;;;;;78.17;22.83;;;23.00;61.10;;;;;;4982029;28;20419;-83
2023/09/12 07:30:56;;;;;;;87.10;26.97;;;23.00;60.90;;;;;;4978069;28;20466;-83
2023/09/12 07:33:22;;;;;;;85.10;27.93;;;23.10;56.70;;;;;;4983346;28;20825;-83
2023/09/12 07:35:49;;;;;;;81.97;26.67;;;23.10;44.40;;;;;;4965488;28;20426;-83
2023/09/12 07:38:17;;;;;;;82.07;26.60;;;23.00;49.60;;;;;;4980843;28;20172;-83
2023/09/12 07:40:43;;;;;;;85.23;27.03;;;23.00;47.60;;;;;;4963492;28;20540;-83
2023/09/12 07:43:09;;;;;;;82.73;28.07;;;23.00;48.60;;;;;;4979498;28;20494;-82
2023/09/12 07:45:37;;;;;;;84.00;26.57;;;23.00;54.20;;;;;;4978768;28;20210;-83
2023/09/12 07:48:07;;;;;;;82.73;26.37;;;23.10;50.50;;;;;;4963107;28;20415;-83
2023/09/12 07:50:33;;;;;;;83.97;25.30;;;23.10;48.40;;;;;;4980738;28;20418;-83
2023/09/12 07:52:58;;;;;;;81.07;27.43;;;23.20;45.90;;;;;;4977898;28;20421;-83
2023/09/12 07:55:30;;;;;;;83.60;29.00;;;23.20;43.80;;;;;;4978772;28;20439;-83
2023/09/12 07:57:56;;;;;;;84.83;30.37;;;23.30;40.90;;;;;;4976524;28;20254;-82
2023/09/12 08:00:22;;;;;;;86.80;29.73;;;23.20;35.50;;;;;;4976180;28;20482;-82
2023/09/12 08:02:47;;;;;;;83.60;30.83;;;23.20;36.90;;;;;;4976155;28;20203;-82
2023/09/12 08:05:13;;;;;;;84.20;28.70;;;23.30;29.80;;;;;;4976214;28;20247;-83
2023/09/12 08:07:39;;;;;;;78.30;25.73;;;23.30;25.20;;;;;;4976271;28;20176;-82
2023/09/12 08:10:05;;;;;;;80.60;25.80;;;23.20;31.30;;;;;;4976165;28;20180;-82
2023/09/12 08:12:30;;;;;;;83.03;25.70;;;23.20;29.20;;;;;;4958653;28;20566;-82
2023/09/12 08:14:56;;;;;;;79.60;26.03;;;23.20;30.50;;;;;;4967797;28;20419;-83
2023/09/12 08:17:23;;;;;;;82.33;28.10;;;23.20;27.70;;;;;;4986890;28;20175;-83
2023/09/12 08:19:49;;;;;;;85.73;27.03;;;23.40;25.30;;;;;;4989863;28;20462;-83
2023/09/12 08:22:16;;;;;;;81.17;26.70;;;23.40;23.30;;;;;;5378606;23;20493;-83
2023/09/12 08:24:42;;;;;;;84.90;28.63;;;23.30;25.90;;;;;;4989767;28;20414;-83
2023/09/12 08:27:09;;;;;;;79.17;28.20;;;23.40;24.30;;;;;;4987172;28;20407;-83
2023/09/12 08:29:39;;;;;;;84.37;30.57;;;23.50;16.90;;;;;;4990052;28;20407;-83
2023/09/12 08:32:06;;;;;;;77.73;26.80;;;23.50;16.40;;;;;;5051767;23;20577;-82
2023/09/12 08:34:32;;;;;;;78.63;26.60;;;23.50;10.20;;;;;;4999538;28;20427;-83
2023/09/12 08:36:58;;;;;;;84.60;22.33;;;23.60;8.30;;;;;;4982087;28;20222;-82
2023/09/12 08:39:26;;;;;;;77.90;16.47;;;23.70;4.30;;;;;;5000037;28;20935;-82
2023/09/12 08:41:52;;;;;;;77.07;18.90;;;23.70;3.50;;;;;;4988396;28;20183;-83
2023/09/12 08:44:24;;;;;;;74.20;14.67;;;23.70;1.10;;;;;;4980254;28;20403;-82
2023/09/12 08:46:50;;;;;;;78.23;16.50;;;23.70;1.00;;;;;;4980438;28;20967;-82
2023/09/12 08:49:16;;;;;;;75.30;16.03;;;23.70;6.30;;;;;;4979898;28;20411;-82
2023/09/12 08:51:42;;;;;;;75.17;18.03;;;23.70;3.80;;;;;;4980481;28;20255;-82
2023/09/12 08:54:09;;;;;;;77.27;19.47;;;23.70;10.70;;;;;;4961762;28;20490;-82
2023/09/12 08:56:39;;;;;;;74.97;16.80;;;23.50;1.00;;;;;;4979974;28;20171;-82
2023/09/12 08:59:06;;;;;;;76.53;18.70;;;23.60;4.30;;;;;;4962842;28;20454;-82
2023/09/12 09:01:33;;;;;;;81.13;16.70;;;23.80;4.90;;;;;;4978898;28;20438;-82
2023/09/12 09:03:58;;;;;;;72.47;9.27;;;24.00;1.00;;;;;;4979566;28;20498;-82
2023/09/12 09:06:26;;;;;;;79.17;13.30;;;24.20;1.00;;;;;;4961946;28;20509;-82
2023/09/12 09:08:52;;;;;;;73.00;10.97;;;24.40;1.00;;;;;;4979361;28;20164;-82
2023/09/12 09:11:17;;;;;;;73.60;11.07;;;24.60;1.00;;;;;;4946075;28;20447;-82
2023/09/12 09:13:43;;;;;;;74.30;11.87;;;24.70;1.00;;;;;;4979515;28;20417;-82
2023/09/12 09:16:14;;;;;;;73.20;10.70;;;24.80;1.00;;;;;;4979509;28;20176;-82
2023/09/12 09:19:19;;;;;;;75.67;11.57;;;24.90;1.00;;;;;;4979463;28;20742;-82
2023/09/12 09:21:45;;;;;;;74.37;8.17;;;24.90;1.00;;;;;;4975144;28;20481;-82
2023/09/12 09:24:13;;;;;;;77.80;9.40;;;25.00;1.00;;;;;;4978361;28;20396;-82
2023/09/12 09:26:58;;;;;;;74.70;10.57;;;24.90;1.00;;;;;;4961228;28;20581;-82
2023/09/12 09:29:24;;;;;;;78.10;10.57;;;24.90;1.00;;;;;;4978417;28;20384;-82
2023/09/12 09:31:51;;;;;;;73.57;9.43;;;24.90;1.00;;;;;;4978426;28;20442;-82
2023/09/12 09:34:22;;;;;;;72.60;8.40;;;24.90;1.00;;;;;;4960972;28;20172;-82
2023/09/12 09:36:48;;;;;;;73.47;8.50;;;25.00;1.00;;;;;;4978456;28;20392;-82
2023/09/12 09:39:15;;;;;;;71.30;7.73;;;25.10;1.00;;;;;;4978455;28;20443;-82
2023/09/12 09:41:41;;;;;;;74.63;8.07;;;25.20;1.00;;;;;;4980214;28;20432;-83
2023/09/12 09:44:08;;;;;;;76.97;7.40;;;25.30;1.00;;;;;;4964780;28;20407;-83
2023/09/12 09:46:35;;;;;;;71.67;8.40;;;25.30;1.00;;;;;;4982306;28;20419;-83
2023/09/12 09:49:01;;;;;;;71.77;8.20;;;25.40;1.00;;;;;;4983336;28;20403;-83
2023/09/12 09:51:27;;;;;;;72.67;8.33;;;25.40;1.00;;;;;;4964681;28;20458;-83
2023/09/12 09:53:57;;;;;;;73.77;9.67;;;25.40;1.00;;;;;;4981932;28;20178;-83
2023/09/12 09:56:24;;;;;;;72.30;11.23;;;25.30;1.00;;;;;;4982325;28;20546;-83
2023/09/12 09:58:58;;;;;;;71.57;10.03;;;25.20;1.00;;;;;;4981232;28;20980;-83
2023/09/12 10:01:30;;;;;;;72.40;11.30;;;25.10;1.00;;;;;;4982729;28;20419;-83
2023/09/12 10:04:00;;;;;;;77.77;12.00;;;25.10;1.00;;;;;;4987362;28;20407;-83
2023/09/12 10:06:31;;;;;;;73.00;9.67;;;25.20;1.00;;;;;;4985018;28;20406;-83
2023/09/12 10:08:58;;;;;;;72.90;9.57;;;25.20;1.00;;;;;;4980872;28;20387;-83
2023/09/12 10:11:30;;;;;;;72.33;9.50;;;25.30;1.00;;;;;;4978541;28;20423;-83
2023/09/12 10:13:59;;;;;;;71.47;9.47;;;25.20;1.00;;;;;;4960343;28;20781;-82
2023/09/12 10:16:30;;;;;;;70.80;8.07;;;25.20;1.00;;;;;;4983679;28;20396;-83
2023/09/12 10:19:29;;;;;;;75.80;8.50;;;25.50;1.00;;;;;;4982185;28;20391;-83
2023/09/12 10:22:17;;;;;;;72.63;9.17;;;25.70;1.00;;;;;;4982687;28;20928;-84
2023/09/12 10:24:45;;;;;;;73.97;8.77;;;25.90;1.00;;;;;;4965650;28;20473;-83
2023/09/12 10:28:12;;;;;;;77.67;10.27;;;26.00;1.00;;;;;;4983077;28;20407;-83
2023/09/12 10:30:39;;;;;;;76.50;8.23;;;26.10;1.00;;;;;;4923421;29;20426;-83
2023/09/12 10:33:17;;;;;;;75.23;7.90;;;26.10;1.00;;;;;;4907298;29;20816;-83
2023/09/12 10:35:50;;;;;;;76.70;6.60;;;26.30;1.00;;;;;;4924221;29;20421;-83
2023/09/12 10:41:30;;;;;;;74.20;6.80;;;26.50;1.00;;;;;;4976306;28;20462;-83
2023/09/12 10:44:01;;;;;;;77.50;7.07;;;26.60;1.00;;;;;;4983714;28;20410;-84
2023/09/12 10:46:27;;;;;;;73.70;7.97;;;26.80;1.00;;;;;;4983748;28;20406;-83
2023/09/12 10:49:08;;;;;;;71.80;7.20;;;26.80;1.00;;;;;;4982969;28;20415;-83
2023/09/12 10:51:48;;;;;;;69.63;6.23;;;26.80;1.00;;;;;;4982596;28;20467;-84
2023/09/12 10:54:27;;;;;;;72.60;6.63;;;26.80;1.00;;;;;;4982652;28;20411;-84
2023/09/12 10:57:03;;;;;;;70.47;6.60;;;26.70;1.00;;;;;;4982360;28;20395;-83
2023/09/12 10:59:31;;;;;;;79.10;6.07;;;26.90;1.00;;;;;;4964812;28;20478;-83
2023/09/12 11:02:36;;;;;;;72.30;7.07;;;27.20;1.00;;;;;;4981899;28;20527;-83
2023/09/12 11:05:10;;;;;;;70.30;7.40;;;27.40;1.00;;;;;;4983718;28;20598;-83
2023/09/12 11:07:35;;;;;;;76.40;11.43;;;27.40;1.00;;;;;;4983539;28;20462;-83
2023/09/12 11:10:19;;;;;;;72.77;13.70;;;27.60;1.00;;;;;;4964332;28;20407;-84
2023/09/12 11:13:16;;;;;;;72.50;11.90;;;27.60;1.00;;;;;;4966438;28;20195;-83
2023/09/12 11:16:17;;;;;;;74.10;13.57;;;27.60;1.00;;;;;;4983305;28;20400;-83
2023/09/12 11:19:29;;;;;;;75.50;14.53;;;27.60;1.00;;;;;;4983025;28;20412;-84
2023/09/12 11:21:56;;;;;;;75.27;18.93;;;27.70;1.00;;;;;;4984065;28;20538;-83
2023/09/12 11:24:21;;;;;;;75.07;19.80;;;27.60;1.00;;;;;;4967136;28;20406;-83
2023/09/12 11:26:57;;;;;;;75.73;18.57;;;27.80;1.00;;;;;;4982207;28;20403;-83
2023/09/12 11:29:41;;;;;;;76.30;19.60;;;27.70;1.00;;;;;;4962571;28;20403;-83
2023/09/12 11:32:07;;;;;;;76.00;20.57;;;27.60;1.00;;;;;;4980661;28;20442;-83
2023/09/12 11:34:52;;;;;;;76.70;20.43;;;27.70;1.00;;;;;;4979936;28;20404;-82
2023/09/12 11:37:28;;;;;;;74.77;17.90;;;27.70;1.00;;;;;;4962658;28;20396;-83
2023/09/12 11:39:54;;;;;;;75.60;20.60;;;27.80;1.00;;;;;;4979784;28;20439;-83
2023/09/12 11:42:25;;;;;;;75.77;19.77;;;27.70;1.00;;;;;;4963562;28;20424;-83
2023/09/12 11:44:51;;;;;;;76.07;20.97;;;27.90;1.00;;;;;;4980015;28;20387;-83
2023/09/12 11:47:17;;;;;;;83.00;23.00;;;27.70;1.00;;;;;;4980074;28;20400;-83
2023/09/12 11:49:46;;;;;;;74.67;16.17;;;27.80;1.00;;;;;;4983712;28;20407;-83
2023/09/12 11:52:21;;;;;;;74.60;19.00;;;28.00;1.00;;;;;;4967866;28;20196;-83
2023/09/12 11:54:47;;;;;;;71.47;12.30;;;28.00;1.00;;;;;;4967936;28;20414;-83
2023/09/12 11:57:15;;;;;;;73.67;16.93;;;28.00;1.00;;;;;;4967813;28;20415;-83
2023/09/12 11:59:46;;;;;;;74.50;14.27;;;28.00;1.00;;;;;;4985342;28;20445;-83
2023/09/12 12:02:12;;;;;;;74.63;12.27;;;28.10;1.00;;;;;;4986396;28;20474;-83
2023/09/12 12:04:38;;;;;;;77.40;10.30;;;28.10;1.00;;;;;;4970172;28;20408;-83
2023/09/12 12:07:05;;;;;;;71.77;11.10;;;28.10;1.00;;;;;;4987129;28;20172;-82
2023/09/12 12:10:03;;;;;;;74.93;10.50;;;28.30;1.00;;;;;;4967915;28;20407;-83
2023/09/12 12:13:09;;;;;;;72.97;9.90;;;28.20;1.00;;;;;;4979613;28;20439;-83
2023/09/12 12:15:38;;;;;;;76.10;8.23;;;28.20;1.00;;;;;;4945326;28;20493;-83
2023/09/12 12:18:23;;;;;;;72.50;9.23;;;28.10;1.00;;;;;;4969566;28;20411;-83
2023/09/12 12:20:49;;;;;;;73.13;9.67;;;28.30;1.00;;;;;;4985376;28;20491;-83
2023/09/12 12:23:14;;;;;;;71.70;11.10;;;27.90;1.00;;;;;;4968272;28;20412;-83
2023/09/12 12:25:40;;;;;;;73.73;11.63;;;27.90;1.00;;;;;;4985729;28;20182;-83
2023/09/12 12:28:19;;;;;;;73.40;13.30;;;27.80;1.00;;;;;;4967959;28;20327;-83
2023/09/12 12:30:51;;;;;;;74.37;12.83;;;28.00;1.00;;;;;;4987725;28;20521;-83
2023/09/12 12:33:19;;;;;;;74.00;13.27;;;28.20;1.00;;;;;;4986399;28;20403;-83
2023/09/12 12:35:49;;;;;;;72.57;10.93;;;28.00;1.00;;;;;;4986356;28;20411;-83
2023/09/12 12:38:18;;;;;;;71.47;9.00;;;28.20;1.00;;;;;;4968631;28;20404;-83
2023/09/12 12:40:46;;;;;;;71.97;9.13;;;28.20;1.00;;;;;;4986207;28;20439;-83